Time;durP1;ratioP1;P1;durP2;ratioP2;P2;SDS_P1;SDS_P2;PMS_P1;PMS_P2;Temp;Humidity;BMP_temperature;BMP_pressure;BME280_temperature;BME280_humidity;BME280_pressure;Samples;Min_cycle;Max_cycle;Signal;HPM_P1;HPM_P2
2021/11/28 00:01:28;;;;;;;57.88;41.47;;;;;;;3.42;98.00;99511.22;10587764;28;20085;-75
2021/11/28 00:06:30;;;;;;;55.10;38.10;;;;;;;3.47;98.06;99524.88;10587955;28;20047;-75
2021/11/28 00:11:33;;;;;;;59.88;43.13;;;;;;;3.54;98.08;99524.13;10586999;28;20016;-76
2021/11/28 00:16:33;;;;;;;71.05;44.20;;;;;;;3.53;98.11;99536.69;10587594;28;20119;-75
2021/11/28 00:21:34;;;;;;;58.88;41.70;;;;;;;3.59;98.07;99540.47;10567137;28;20126;-75
2021/11/28 00:26:34;;;;;;;57.10;42.92;;;;;;;3.57;98.06;99537.97;10586187;28;20035;-75
2021/11/28 00:31:35;;;;;;;61.67;41.20;;;;;;;3.57;97.97;99550.53;10585860;28;20059;-77
2021/11/28 00:36:35;;;;;;;59.60;41.72;;;;;;;3.57;98.10;99553.19;10551512;28;20424;-75
2021/11/28 00:41:36;;;;;;;54.03;38.05;;;;;;;3.58;98.05;99563.75;10587117;28;20043;-77
2021/11/28 00:46:36;;;;;;;67.57;42.83;;;;;;;3.54;98.06;99556.25;10586907;28;20055;-77
2021/11/28 00:51:48;;;;;;;54.58;37.97;;;;;;;3.51;98.22;99557.47;10587399;28;20051;-75
2021/11/28 00:56:48;;;;;;;60.28;41.10;;;;;;;3.58;98.00;99571.75;10587530;28;20034;-77
2021/11/28 01:01:49;;;;;;;58.53;40.15;;;;;;;3.65;97.90;99582.56;10567425;28;20054;-75
2021/11/28 01:06:49;;;;;;;56.67;42.45;;;;;;;3.65;97.82;99579.88;10568096;28;20023;-75
2021/11/28 01:11:50;;;;;;;60.17;41.72;;;;;;;3.64;97.86;99583.59;10586554;28;20032;-77
2021/11/28 01:16:50;;;;;;;56.38;39.70;;;;;;;3.58;97.84;99584.31;10587062;28;20459;-75
2021/11/28 01:21:51;;;;;;;51.40;36.25;;;;;;;3.66;97.83;99598.44;10567246;28;20122;-75
2021/11/28 01:26:51;;;;;;;53.08;36.47;;;;;;;3.73;97.66;99606.53;10548910;28;20123;-76
2021/11/28 01:31:52;;;;;;;44.70;32.20;;;;;;;3.73;97.51;99618.13;10567292;28;20031;-76
2021/11/28 01:36:53;;;;;;;52.35;34.20;;;;;;;3.75;97.81;99625.94;10566027;28;20035;-77
2021/11/28 01:41:53;;;;;;;50.97;37.88;;;;;;;3.80;97.38;99630.72;10583205;28;20495;-75
2021/11/28 01:46:55;;;;;;;51.95;36.47;;;;;;;3.81;97.47;99635.91;10583838;28;20082;-76
2021/11/28 01:51:55;;;;;;;47.95;32.25;;;;;;;3.76;96.97;99634.81;10564990;28;20135;-75
2021/11/28 01:56:56;;;;;;;46.30;33.38;;;;;;;3.71;96.56;99636.19;10566400;28;20111;-76
2021/11/28 02:01:56;;;;;;;45.97;32.72;;;;;;;3.38;93.63;99646.41;10583902;28;20024;-74
2021/11/28 02:06:57;;;;;;;44.05;32.78;;;;;;;3.17;93.73;99648.94;10564211;28;20081;-77
2021/11/28 02:11:58;;;;;;;35.92;27.77;;;;;;;3.28;95.35;99651.16;10565616;28;20473;-76
2021/11/28 02:16:58;;;;;;;43.65;29.13;;;;;;;3.44;96.92;99650.19;10581842;28;20039;-75
2021/11/28 02:21:59;;;;;;;33.83;25.65;;;;;;;3.53;97.06;99654.44;10582314;28;20058;-75
2021/11/28 02:26:59;;;;;;;35.78;25.55;;;;;;;3.38;94.82;99653.59;10582219;28;20032;-76
2021/11/28 02:31:59;;;;;;;33.67;24.58;;;;;;;3.16;94.03;99674.88;10581848;28;20031;-76
2021/11/28 02:37:00;;;;;;;34.88;25.52;;;;;;;3.12;94.42;99686.09;10546713;28;20039;-75
2021/11/28 02:42:00;;;;;;;30.77;22.30;;;;;;;3.14;95.04;99686.75;10563803;28;20442;-76
2021/11/28 02:47:01;;;;;;;33.33;23.60;;;;;;;3.05;94.43;99685.16;10580743;28;20080;-76
2021/11/28 02:52:02;;;;;;;36.15;26.73;;;;;;;3.09;95.18;99697.97;10581747;28;20023;-75
2021/11/28 02:57:04;;;;;;;33.88;25.73;;;;;;;3.05;94.58;99693.16;10562809;28;20036;-75
2021/11/28 03:02:04;;;;;;;32.75;24.88;;;;;;;2.86;93.71;99703.31;10581245;28;20534;-75
2021/11/28 03:07:05;;;;;;;29.95;24.40;;;;;;;2.69;92.79;99699.09;10563048;28;20106;-76
2021/11/28 03:12:06;;;;;;;33.08;23.70;;;;;;;2.48;91.74;99700.53;10562777;28;20034;-77
2021/11/28 03:17:06;;;;;;;31.13;23.15;;;;;;;2.31;91.16;99686.41;10581365;28;20039;-75
2021/11/28 03:22:07;;;;;;;33.13;21.65;;;;;;;2.20;91.08;99689.47;10580899;28;20042;-75
2021/11/28 03:27:07;;;;;;;30.92;23.27;;;;;;;2.04;91.29;99687.69;10564255;28;20062;-74
2021/11/28 03:32:08;;;;;;;34.22;23.15;;;;;;;1.97;90.79;99699.22;10564896;28;20082;-77
2021/11/28 03:37:08;;;;;;;37.45;23.17;;;;;;;1.79;90.83;99710.13;10580800;28;20468;-74
2021/11/28 03:42:08;;;;;;;34.15;24.48;;;;;;;1.69;90.49;99704.13;10546946;28;20031;-75
2021/11/28 03:47:09;;;;;;;34.22;22.38;;;;;;;1.66;91.45;99696.47;10569202;28;20075;-77
2021/11/28 03:52:09;;;;;;;35.03;24.05;;;;;;;1.57;90.36;99701.00;10580402;28;20110;-75
2021/11/28 03:57:10;;;;;;;34.15;23.17;;;;;;;1.43;90.42;99704.31;10564557;28;20024;-74
2021/11/28 04:02:10;;;;;;;40.40;26.05;;;;;;;1.48;91.07;99702.00;10588322;28;20043;-75
2021/11/28 04:07:10;;;;;;;34.65;25.77;;;;;;;1.47;91.33;99708.31;10587413;28;20457;-74
2021/11/28 04:12:11;;;;;;;39.25;27.17;;;;;;;1.38;90.82;99707.50;10587698;28;20106;-76
2021/11/28 04:17:11;;;;;;;31.63;23.42;;;;;;;1.32;90.64;99713.50;10569475;28;20030;-75
2021/11/28 04:22:12;;;;;;;33.83;26.25;;;;;;;1.32;91.29;99721.50;10588036;28;20064;-76
2021/11/28 04:27:12;;;;;;;38.00;27.02;;;;;;;1.36;92.00;99722.84;10569465;28;20059;-74
2021/11/28 04:32:13;;;;;;;32.95;23.65;;;;;;;1.37;91.19;99705.81;10551351;28;20151;-75
2021/11/28 04:37:13;;;;;;;42.75;25.65;;;;;;;1.32;91.53;99713.50;10586433;28;20482;-74
2021/11/28 04:42:13;;;;;;;33.47;25.42;;;;;;;1.29;91.20;99712.00;10567967;28;20059;-77
2021/11/28 04:47:15;;;;;;;36.83;24.52;;;;;;;1.25;91.24;99715.19;10585483;28;20087;-75
2021/11/28 04:52:15;;;;;;;36.00;25.67;;;;;;;1.25;91.60;99708.00;10567482;28;20458;-75
2021/11/28 04:57:16;;;;;;;39.33;25.23;;;;;;;1.22;91.45;99713.69;10568712;28;20084;-76
2021/11/28 05:02:16;;;;;;;44.35;27.10;;;;;;;1.19;91.56;99722.00;10585428;28;20049;-76
2021/11/28 05:07:16;;;;;;;36.33;23.38;;;;;;;1.16;91.56;99723.16;10585482;28;20042;-75
2021/11/28 05:12:17;;;;;;;37.55;25.50;;;;;;;1.20;91.80;99733.50;10585426;28;20039;-75
2021/11/28 05:17:18;;;;;;;41.92;26.90;;;;;;;1.29;92.01;99737.84;10584726;28;20522;-77
2021/11/28 05:22:18;;;;;;;43.80;26.88;;;;;;;1.33;92.25;99752.50;10584590;28;20043;-77
2021/11/28 05:27:19;;;;;;;35.38;24.80;;;;;;;1.35;92.63;99758.53;10566252;28;20476;-75
2021/11/28 05:32:19;;;;;;;49.70;28.52;;;;;;;1.41;92.77;99751.69;10565851;28;20039;-77
2021/11/28 05:37:20;;;;;;;35.97;25.00;;;;;;;1.47;92.65;99756.34;10567303;28;20038;-76
2021/11/28 05:42:20;;;;;;;38.03;27.65;;;;;;;1.46;93.49;99744.84;10584653;28;20035;-74
2021/11/28 05:47:20;;;;;;;34.20;25.15;;;;;;;1.43;92.70;99747.00;10568761;28;20371;-76
2021/11/28 05:52:21;;;;;;;43.55;26.50;;;;;;;1.41;92.14;99744.53;10565931;28;20046;-77
2021/11/28 05:57:21;;;;;;;38.10;24.50;;;;;;;1.47;93.15;99757.19;10583252;28;20118;-75
2021/11/28 06:02:22;;;;;;;38.90;26.23;;;;;;;1.54;93.46;99768.84;10569353;28;20054;-75
2021/11/28 06:07:22;;;;;;;46.13;29.50;;;;;;;1.59;93.66;99763.84;10566071;28;20437;-77
2021/11/28 06:12:22;;;;;;;33.65;25.85;;;;;;;1.60;93.48;99778.03;10583459;28;20123;-77
2021/11/28 06:17:23;;;;;;;47.47;29.13;;;;;;;1.58;93.03;99772.03;10582934;28;20372;-75
2021/11/28 06:22:23;;;;;;;40.70;27.75;;;;;;;1.57;93.20;99776.53;10547038;28;20127;-77
2021/11/28 06:27:24;;;;;;;40.10;25.35;;;;;;;1.56;93.50;99779.34;10581461;28;20114;-75
2021/11/28 06:32:24;;;;;;;38.72;28.95;;;;;;;1.58;93.58;99796.88;10581273;28;20039;-75
2021/11/28 06:37:24;;;;;;;49.45;26.02;;;;;;;1.56;93.22;99796.22;10581768;28;20104;-76
2021/11/28 06:42:25;;;;;;;39.55;27.75;;;;;;;1.55;93.53;99797.19;10546455;28;20049;-76
2021/11/28 06:47:25;;;;;;;43.05;26.45;;;;;;;1.63;93.95;99799.88;10563414;28;20428;-75
2021/11/28 06:52:26;;;;;;;37.55;27.95;;;;;;;1.84;95.25;99817.22;10582421;28;20069;-76
2021/11/28 06:57:26;;;;;;;38.55;26.33;;;;;;;2.03;95.74;99810.69;10581325;28;20420;-75
2021/11/28 07:02:26;;;;;;;42.70;26.85;;;;;;;2.24;96.32;99808.31;10581650;28;20038;-74
2021/11/28 07:07:27;;;;;;;42.92;28.35;;;;;;;2.38;96.57;99825.47;10581114;28;20118;-74
2021/11/28 07:12:27;;;;;;;50.72;30.63;;;;;;;2.48;96.59;99825.28;10581092;28;20063;-75
2021/11/28 07:17:28;;;;;;;47.30;29.85;;;;;;;2.58;96.77;99828.56;10563233;28;20061;-75
2021/11/28 07:22:28;;;;;;;45.65;29.77;;;;;;;2.69;96.42;99846.09;10580358;28;20356;-75
2021/11/28 07:27:29;;;;;;;50.55;31.83;;;;;;;2.80;97.02;99843.88;10581597;28;20036;-77
2021/11/28 07:32:29;;;;;;;53.63;30.10;;;;;;;2.96;97.07;99856.34;10585210;28;20036;-78
2021/11/28 07:37:30;;;;;;;42.33;30.25;;;;;;;3.15;97.57;99865.78;10588075;28;20046;-76
2021/11/28 07:42:30;;;;;;;46.45;33.15;;;;;;;3.31;97.85;99878.25;10588194;28;20038;-77
2021/11/28 07:47:31;;;;;;;28.48;19.65;;;;;;;3.37;97.99;99893.59;10591174;28;20051;-76
2021/11/28 07:52:31;;;;;;;22.27;13.25;;;;;;;3.35;98.28;99889.41;10588776;28;20062;-78
2021/11/28 07:57:32;;;;;;;20.15;10.70;;;;;;;3.39;98.11;99898.78;10587843;28;20100;-76
2021/11/28 08:02:32;;;;;;;11.38;8.07;;;;;;;3.42;98.24;99915.31;10588029;28;20137;-75
2021/11/28 08:07:33;;;;;;;14.55;9.23;;;;;;;3.49;98.31;99926.16;10588964;28;20039;-77
2021/11/28 08:12:33;;;;;;;11.75;6.75;;;;;;;3.54;97.95;99928.28;10555663;28;20081;-77
2021/11/28 08:17:38;;;;;;;8.73;6.65;;;;;;;3.55;98.16;99921.94;10588240;28;20048;-78
2021/11/28 08:22:38;;;;;;;8.65;5.55;;;;;;;3.61;97.79;99932.78;10589530;28;20031;-79
2021/11/28 08:27:39;;;;;;;4.68;3.85;;;;;;;3.59;97.99;99939.31;10587884;28;20382;-77
2021/11/28 08:32:40;;;;;;;8.32;3.60;;;;;;;3.58;97.94;99951.88;10587916;28;20027;-77
2021/11/28 08:37:40;;;;;;;4.07;2.83;;;;;;;3.55;97.71;99951.41;10597327;28;20035;-79
2021/11/28 08:42:41;;;;;;;6.80;2.15;;;;;;;3.51;97.87;99964.31;10585616;28;20031;-79
2021/11/28 08:47:41;;;;;;;1.80;1.70;;;;;;;3.43;98.26;99967.84;10601149;28;20097;-79
2021/11/28 08:52:43;;;;;;;1.23;1.20;;;;;;;3.33;98.45;99969.88;10599356;28;20027;-79
2021/11/28 08:57:44;;;;;;;9.48;2.53;;;;;;;3.36;98.45;99979.41;10569143;28;20023;-81
2021/11/28 09:02:48;;;;;;;5.93;2.30;;;;;;;3.40;98.37;99986.91;10590639;28;20032;-78
2021/11/28 09:07:49;;;;;;;3.92;2.05;;;;;;;3.41;98.56;99996.59;10565901;28;20035;-78
2021/11/28 09:12:49;;;;;;;3.38;1.83;;;;;;;3.45;98.72;99989.91;10569421;28;20028;-79
2021/11/28 09:18:02;;;;;;;2.20;1.95;;;;;;;3.46;98.60;99996.91;10566181;28;20111;-78
2021/11/28 09:28:06;;;;;;;1.60;1.50;;;;;;;3.22;98.37;100008.56;10584093;28;20404;-76
2021/11/28 09:33:06;;;;;;;2.03;1.55;;;;;;;3.17;98.48;100016.25;10584675;28;20031;-73
2021/11/28 09:38:06;;;;;;;0.88;0.88;;;;;;;3.12;98.97;100023.13;10585203;28;20050;-77
2021/11/28 09:43:07;;;;;;;1.00;1.00;;;;;;;3.22;98.90;100021.09;10594400;28;20061;-77
2021/11/28 09:48:07;;;;;;;2.35;1.70;;;;;;;3.29;98.75;100011.38;10590153;28;20118;-77
2021/11/28 09:53:08;;;;;;;2.15;1.83;;;;;;;3.29;98.98;100002.50;10549334;28;20081;-75
2021/11/28 09:58:08;;;;;;;1.25;1.25;;;;;;;3.38;98.96;99999.66;10564771;28;20069;-73
2021/11/28 10:03:09;;;;;;;1.70;1.60;;;;;;;3.43;98.44;99986.56;10548050;28;20531;-77
2021/11/28 10:08:09;;;;;;;1.67;1.20;;;;;;;3.32;98.88;99984.28;10582986;28;20363;-75
2021/11/28 10:13:09;;;;;;;1.30;1.30;;;;;;;3.29;98.96;99979.28;10564251;28;20059;-78
2021/11/28 10:18:10;;;;;;;2.65;1.05;;;;;;;3.37;98.94;99986.44;10547686;28;20035;-76
2021/11/28 10:23:10;;;;;;;1.67;1.35;;;;;;;3.44;98.91;99995.41;10548502;28;20023;-77
2021/11/28 10:28:12;;;;;;;2.80;1.38;;;;;;;3.54;98.75;100000.56;10563996;28;20035;-77
2021/11/28 10:33:21;;;;;;;3.85;1.23;;;;;;;3.50;98.39;99995.56;10581832;28;20430;-74
2021/11/28 10:38:21;;;;;;;1.25;0.98;;;;;;;3.53;98.17;99998.91;10583266;28;20054;-75
2021/11/28 10:43:22;;;;;;;1.35;1.23;;;;;;;3.59;98.35;100024.97;10580853;28;20043;-77
2021/11/28 10:48:23;;;;;;;1.25;1.25;;;;;;;3.62;98.34;100025.47;10562703;28;20051;-76
2021/11/28 10:53:24;;;;;;;4.75;2.05;;;;;;;3.68;98.19;100026.63;10581635;28;20047;-74
2021/11/28 10:58:26;;;;;;;1.13;1.13;;;;;;;3.62;98.35;100032.66;10580574;28;20067;-75
2021/11/28 11:03:31;;;;;;;1.52;1.17;;;;;;;3.69;98.47;100033.63;10581336;28;20092;-76
2021/11/28 11:08:31;;;;;;;0.98;0.98;;;;;;;3.69;97.96;100017.56;10533894;28;20104;-75
2021/11/28 11:13:32;;;;;;;1.10;1.10;;;;;;;3.64;97.98;100009.25;10590259;28;20036;-78
2021/11/28 11:18:32;;;;;;;3.85;1.35;;;;;;;3.67;97.62;100015.09;10572608;28;20067;-74
2021/11/28 11:23:36;;;;;;;1.27;1.27;;;;;;;3.91;97.42;100016.78;10554380;28;20024;-76
2021/11/28 11:28:37;;;;;;;2.25;1.73;;;;;;;4.09;97.19;100004.97;10571109;28;20030;-76
2021/11/28 11:33:37;;;;;;;1.13;1.13;;;;;;;4.29;96.35;100000.81;10553363;28;20031;-75
2021/11/28 11:38:37;;;;;;;1.95;1.77;;;;;;;4.45;96.88;100005.22;10570404;28;20040;-77
2021/11/28 11:43:40;;;;;;;1.70;1.60;;;;;;;4.55;96.60;100000.44;10588770;28;20088;-76
2021/11/28 11:48:40;;;;;;;5.03;1.90;;;;;;;4.69;96.82;100003.31;10554843;28;20062;-75
2021/11/28 11:53:40;;;;;;;4.32;1.90;;;;;;;4.75;96.14;100006.09;10569777;28;20023;-75
2021/11/28 11:58:46;;;;;;;1.73;1.63;;;;;;;4.72;96.37;99995.75;10587277;28;20417;-74
2021/11/28 12:03:51;;;;;;;1.63;1.52;;;;;;;4.70;95.82;100002.31;10569285;28;20035;-75
2021/11/28 12:08:53;;;;;;;1.55;1.45;;;;;;;4.70;95.43;100003.16;10587988;28;20057;-75
2021/11/28 12:13:57;;;;;;;1.98;1.45;;;;;;;4.72;95.45;100009.16;10588031;28;20062;-75
2021/11/28 12:18:58;;;;;;;4.82;1.85;;;;;;;4.69;95.27;100017.59;10584751;28;20042;-76
2021/11/28 12:24:11;;;;;;;5.30;2.75;;;;;;;4.69;95.41;100012.22;10586126;28;20123;-74
2021/11/28 12:29:15;;;;;;;1.55;1.45;;;;;;;4.64;95.29;100017.28;10587039;28;20059;-76
2021/11/28 12:34:18;;;;;;;5.53;2.25;;;;;;;4.65;95.36;100018.94;10586421;28;20028;-74
2021/11/28 12:39:19;;;;;;;1.42;1.27;;;;;;;4.71;95.57;100020.91;10586119;28;20526;-76
2021/11/28 12:44:22;;;;;;;6.72;2.00;;;;;;;4.73;95.32;100026.94;10585307;28;20126;-75
2021/11/28 12:49:33;;;;;;;7.65;2.05;;;;;;;4.66;96.05;100037.56;10567928;28;20027;-75
2021/11/28 12:54:33;;;;;;;4.97;2.13;;;;;;;4.68;95.95;100040.03;10550283;28;20463;-75
2021/11/28 12:59:33;;;;;;;7.47;2.63;;;;;;;4.71;95.93;100026.28;10550001;28;20099;-75
2021/11/28 13:04:40;;;;;;;3.63;1.75;;;;;;;4.69;95.47;100022.09;10585184;28;20579;-75
2021/11/28 13:09:40;;;;;;;2.53;2.22;;;;;;;4.72;95.75;100017.19;10584795;28;20020;-75
2021/11/28 13:14:47;;;;;;;1.83;1.65;;;;;;;4.78;95.39;100023.69;10584434;28;20467;-75
2021/11/28 13:19:48;;;;;;;5.07;2.38;;;;;;;4.82;95.14;100012.44;10584920;28;20046;-77
2021/11/28 13:24:48;;;;;;;2.35;1.90;;;;;;;4.92;94.94;100014.03;10566302;28;20040;-77
2021/11/28 13:29:54;;;;;;;2.33;1.63;;;;;;;4.95;94.92;100019.03;10583659;28;20047;-75
2021/11/28 13:34:55;;;;;;;4.72;1.88;;;;;;;4.99;94.54;100025.69;10548600;28;20383;-76
2021/11/28 13:39:55;;;;;;;3.67;1.77;;;;;;;4.97;93.81;100030.41;10583017;28;20119;-76
2021/11/28 13:44:55;;;;;;;5.25;2.08;;;;;;;4.87;94.19;100025.28;10564255;28;20071;-75
2021/11/28 13:50:06;;;;;;;1.45;1.42;;;;;;;4.76;93.89;100028.44;10583830;28;20046;-76
2021/11/28 13:55:07;;;;;;;14.02;3.08;;;;;;;4.58;93.59;100026.06;10566438;28;20439;-75
2021/11/28 14:00:08;;;;;;;10.00;2.45;;;;;;;4.39;93.05;100028.19;10583130;28;20032;-77
2021/11/28 14:05:13;;;;;;;5.82;2.10;;;;;;;4.18;92.31;100033.41;10582733;28;20441;-75
2021/11/28 14:10:18;;;;;;;16.75;3.30;;;;;;;3.97;91.80;100026.78;10565512;28;20041;-76
2021/11/28 14:15:19;;;;;;;5.38;2.42;;;;;;;3.75;91.00;100021.41;10582618;28;20069;-76
2021/11/28 14:20:19;;;;;;;2.38;2.17;;;;;;;3.57;91.07;100019.78;10582122;28;20043;-75
2021/11/28 14:25:22;;;;;;;3.72;3.35;;;;;;;3.42;90.99;100025.06;10581303;28;20146;-74
2021/11/28 14:30:23;;;;;;;4.20;3.15;;;;;;;3.23;90.52;100026.28;10563694;28;20368;-76
2021/11/28 14:35:23;;;;;;;3.55;3.20;;;;;;;3.09;90.37;100044.84;10562760;28;20028;-76
2021/11/28 14:40:29;;;;;;;5.10;3.67;;;;;;;3.06;91.14;100043.34;10581178;28;20035;-76
2021/11/28 14:45:29;;;;;;;10.50;3.93;;;;;;;3.04;91.18;100048.06;10563743;28;20043;-75
2021/11/28 14:50:30;;;;;;;7.47;3.97;;;;;;;3.07;91.51;100057.59;10584882;28;20065;-77
2021/11/28 14:55:30;;;;;;;4.68;3.63;;;;;;;3.20;93.33;100055.22;10565245;28;20023;-75
2021/11/28 15:00:35;;;;;;;7.63;4.55;;;;;;;3.18;93.08;100062.56;10564035;28;20066;-75
2021/11/28 15:05:35;;;;;;;5.97;4.03;;;;;;;3.20;93.25;100056.03;10563612;28;20120;-75
2021/11/28 15:10:36;;;;;;;9.88;5.63;;;;;;;3.38;94.50;100057.66;10563124;28;20530;-77
2021/11/28 15:15:36;;;;;;;9.25;4.25;;;;;;;3.38;94.11;100063.00;10562448;28;20088;-76
2021/11/28 15:20:36;;;;;;;11.23;5.05;;;;;;;3.24;92.99;100072.59;10580617;28;20027;-75
2021/11/28 15:25:37;;;;;;;9.25;5.05;;;;;;;3.08;92.34;100076.13;10580810;28;20059;-75
2021/11/28 15:30:38;;;;;;;8.15;4.85;;;;;;;3.05;92.65;100086.34;10580316;28;20039;-75
2021/11/28 15:35:38;;;;;;;8.60;6.63;;;;;;;3.07;93.65;100090.50;10562786;28;20028;-75
2021/11/28 15:40:40;;;;;;;12.23;6.82;;;;;;;3.10;93.93;100095.53;10561902;28;20092;-76
2021/11/28 15:45:40;;;;;;;8.38;7.05;;;;;;;3.24;94.84;100100.19;10579491;28;20092;-76
2021/11/28 15:50:41;;;;;;;10.07;5.90;;;;;;;3.33;95.15;100092.97;10580005;28;20031;-77
2021/11/28 15:55:41;;;;;;;9.00;5.05;;;;;;;3.36;94.39;100099.84;10587508;28;20040;-77
2021/11/28 16:00:42;;;;;;;10.35;6.78;;;;;;;3.40;94.92;100110.00;10570029;28;20123;-77
2021/11/28 16:05:43;;;;;;;15.50;6.25;;;;;;;3.43;95.17;100108.84;10569634;28;20069;-78
2021/11/28 16:10:43;;;;;;;7.38;5.80;;;;;;;3.28;94.03;100108.69;10586931;28;20035;-76
2021/11/28 16:15:44;;;;;;;8.93;6.05;;;;;;;3.11;93.01;100110.56;10586111;28;20035;-78
2021/11/28 16:20:44;;;;;;;16.00;6.32;;;;;;;2.96;92.55;100102.38;10568682;28;20031;-76
2021/11/28 16:25:44;;;;;;;8.23;5.88;;;;;;;3.02;93.11;100104.38;10586883;28;20036;-78
2021/11/28 16:30:48;;;;;;;12.88;6.22;;;;;;;3.15;94.57;100108.38;10551787;28;20039;-76
2021/11/28 16:35:49;;;;;;;10.90;5.60;;;;;;;3.26;95.18;100110.72;10568792;28;20070;-77
2021/11/28 16:40:50;;;;;;;10.85;7.65;;;;;;;3.39;95.83;100140.47;10552358;28;20058;-76
2021/11/28 16:45:51;;;;;;;10.55;7.32;;;;;;;3.48;95.81;100142.13;10586226;28;20063;-76
2021/11/28 16:50:51;;;;;;;14.18;9.18;;;;;;;3.58;95.99;100149.16;10567612;28;20058;-76
2021/11/28 16:55:51;;;;;;;15.77;10.27;;;;;;;3.62;95.85;100156.66;10586996;28;20032;-76
2021/11/28 17:00:52;;;;;;;17.75;9.50;;;;;;;3.68;95.90;100157.81;10586419;28;20089;-76
2021/11/28 17:05:54;;;;;;;13.52;8.60;;;;;;;3.68;95.98;100169.34;10568550;28;20062;-77
2021/11/28 17:10:54;;;;;;;14.00;6.60;;;;;;;3.69;95.47;100178.22;10587164;28;20065;-78
2021/11/28 17:15:55;;;;;;;6.53;5.68;;;;;;;3.68;95.62;100176.56;10551091;28;20031;-75
2021/11/28 17:20:55;;;;;;;9.45;5.38;;;;;;;3.71;95.47;100177.06;10585101;28;20040;-77
2021/11/28 17:25:55;;;;;;;6.85;4.95;;;;;;;3.67;95.15;100181.09;10584191;28;20028;-76
2021/11/28 17:30:58;;;;;;;5.05;3.03;;;;;;;3.57;94.24;100183.09;10584707;28;20032;-76
2021/11/28 17:35:58;;;;;;;7.68;4.20;;;;;;;3.35;92.88;100198.03;10565984;28;20530;-76
2021/11/28 17:40:58;;;;;;;11.57;4.07;;;;;;;3.18;92.32;100193.66;10584133;28;20042;-77
2021/11/28 17:45:59;;;;;;;9.50;4.57;;;;;;;3.03;92.38;100207.72;10583796;28;20055;-75
2021/11/28 17:50:59;;;;;;;8.80;4.03;;;;;;;2.93;92.50;100217.69;10583827;28;20114;-76
2021/11/28 17:56:00;;;;;;;4.55;4.15;;;;;;;2.77;91.60;100215.84;10583714;28;20027;-78
2021/11/28 18:01:00;;;;;;;11.57;4.97;;;;;;;2.65;91.78;100224.31;10583049;28;20044;-76
2021/11/28 18:06:02;;;;;;;8.85;6.57;;;;;;;2.75;92.56;100227.72;10582254;28;20035;-77
2021/11/28 18:11:03;;;;;;;10.80;5.85;;;;;;;2.89;93.87;100240.44;10582797;28;20470;-77
2021/11/28 18:16:04;;;;;;;15.70;6.85;;;;;;;2.95;94.12;100231.75;10581365;28;20035;-78
2021/11/28 18:21:04;;;;;;;17.42;5.95;;;;;;;3.01;94.30;100241.78;10582372;28;20028;-78
2021/11/28 18:26:06;;;;;;;12.75;6.18;;;;;;;3.11;95.10;100259.53;10583668;28;20077;-77
2021/11/28 18:31:06;;;;;;;13.10;8.25;;;;;;;3.24;95.44;100279.44;10564345;28;20448;-76
2021/11/28 18:36:07;;;;;;;8.57;4.32;;;;;;;3.33;96.27;100276.78;10582981;28;20039;-75
2021/11/28 18:41:07;;;;;;;3.50;3.20;;;;;;;3.45;95.68;100302.22;10583561;28;20114;-76
2021/11/28 18:46:08;;;;;;;9.00;4.60;;;;;;;3.45;95.80;100278.97;10582422;28;20241;-76
2021/11/28 18:51:12;;;;;;;5.97;3.95;;;;;;;3.43;95.34;100277.47;10582769;28;20067;-76
2021/11/28 18:56:13;;;;;;;18.27;5.00;;;;;;;3.29;94.49;100272.75;10583913;28;20038;-77
2021/11/28 19:01:14;;;;;;;5.93;3.85;;;;;;;3.18;94.43;100282.78;10565290;28;20115;-78
2021/11/28 19:06:15;;;;;;;6.13;4.00;;;;;;;3.14;94.28;100280.63;10563898;28;20114;-77
2021/11/28 19:11:16;;;;;;;19.83;5.30;;;;;;;3.11;94.32;100278.25;10546207;28;20028;-77
2021/11/28 19:16:17;;;;;;;9.50;5.65;;;;;;;3.08;94.77;100292.78;10582634;28;20059;-75
2021/11/28 19:21:21;;;;;;;11.43;7.90;;;;;;;3.07;94.39;100323.22;10548253;28;20069;-76
2021/11/28 19:26:21;;;;;;;9.90;3.17;;;;;;;2.84;93.46;100347.06;10568154;28;20157;-73
2021/11/28 19:31:22;;;;;;;6.03;2.30;;;;;;;2.49;92.63;100367.59;10554893;28;20121;-75
2021/11/28 19:36:22;;;;;;;3.72;2.40;;;;;;;2.26;93.03;100403.84;10570313;28;20087;-71
2021/11/28 19:41:27;;;;;;;4.95;1.92;;;;;;;1.91;92.82;100421.59;10591089;28;20463;-73
2021/11/28 19:46:28;;;;;;;1.60;1.50;;;;;;;1.54;93.50;100427.91;10590429;28;20054;-75
2021/11/28 19:51:29;;;;;;;2.40;1.75;;;;;;;1.52;94.58;100431.72;10554076;28;20039;-77
2021/11/28 19:56:29;;;;;;;2.40;2.17;;;;;;;1.50;94.65;100425.69;10570622;28;20027;-77
2021/11/28 20:01:30;;;;;;;5.65;2.20;;;;;;;1.54;94.64;100419.91;10570073;28;20035;-78
2021/11/28 20:06:31;;;;;;;2.05;1.10;;;;;;;1.55;94.68;100405.56;10587873;28;20032;-75
2021/11/28 20:11:32;;;;;;;1.77;1.67;;;;;;;1.56;95.09;100401.94;10552283;28;20024;-76
2021/11/28 20:16:33;;;;;;;7.05;1.50;;;;;;;1.50;94.10;100407.00;10587116;28;20039;-77
2021/11/28 20:21:36;;;;;;;2.67;1.98;;;;;;;1.50;94.50;100396.31;10568809;28;20505;-78
2021/11/28 20:26:37;;;;;;;4.88;2.40;;;;;;;1.46;94.47;100390.47;10569683;28;20039;-78
2021/11/28 20:31:38;;;;;;;2.90;1.83;;;;;;;1.32;93.90;100401.66;10569773;28;20032;-76
2021/11/28 20:36:39;;;;;;;2.50;1.65;;;;;;;1.24;94.05;100399.72;10568286;28;20354;-77
2021/11/28 20:41:39;;;;;;;1.80;1.70;;;;;;;1.26;93.98;100410.25;10586523;28;20479;-76
2021/11/28 20:46:40;;;;;;;1.55;1.45;;;;;;;1.27;94.94;100412.75;10586697;28;20126;-77
2021/11/28 20:51:41;;;;;;;4.28;2.10;;;;;;;1.30;94.70;100423.13;10568120;28;20038;-76
2021/11/28 20:56:41;;;;;;;4.57;2.05;;;;;;;1.29;94.21;100432.13;10585603;28;20035;-78
2021/11/28 21:01:42;;;;;;;4.38;2.88;;;;;;;1.31;93.90;100419.50;10586230;28;20088;-78
2021/11/28 21:06:43;;;;;;;6.43;2.72;;;;;;;1.32;94.68;100437.19;10586253;28;20177;-77
2021/11/28 21:11:43;;;;;;;4.20;2.05;;;;;;;1.41;94.86;100430.13;10585308;28;20459;-77
2021/11/28 21:16:44;;;;;;;3.10;2.90;;;;;;;1.46;95.06;100443.00;10567743;28;20328;-78
2021/11/28 21:21:44;;;;;;;3.20;3.00;;;;;;;1.42;95.10;100450.47;10567747;28;20034;-78
2021/11/28 21:26:45;;;;;;;11.88;5.93;;;;;;;1.36;94.66;100449.22;10566712;28;20082;-79
2021/11/28 21:31:48;;;;;;;7.97;5.28;;;;;;;1.32;94.67;100444.34;10584036;28;20050;-77
2021/11/28 21:36:48;;;;;;;7.03;5.90;;;;;;;1.25;94.20;100449.44;10583507;28;20101;-77
2021/11/28 21:41:54;;;;;;;6.28;4.30;;;;;;;1.19;93.99;100462.53;10584512;28;20109;-78
2021/11/28 21:46:55;;;;;;;5.60;3.87;;;;;;;1.13;93.79;100485.28;10550338;28;20061;-76
2021/11/28 21:51:57;;;;;;;7.10;4.63;;;;;;;1.16;94.03;100493.81;10582673;28;20031;-77
2021/11/28 21:56:58;;;;;;;6.35;4.10;;;;;;;1.30;95.45;100491.66;10583363;28;20409;-78
2021/11/28 22:01:58;;;;;;;6.07;3.65;;;;;;;1.39;95.89;100488.94;10567406;28;20059;-77
2021/11/28 22:06:59;;;;;;;3.25;3.03;;;;;;;1.47;96.07;100484.69;10582980;28;20082;-77
2021/11/28 22:12:02;;;;;;;6.03;3.17;;;;;;;1.61;96.34;100476.19;10583468;28;20466;-76
2021/11/28 22:17:06;;;;;;;5.07;3.05;;;;;;;1.75;96.03;100475.66;10564644;28;20031;-77
2021/11/28 22:22:12;;;;;;;7.15;3.05;;;;;;;1.77;96.27;100495.03;10581982;28;20020;-78
2021/11/28 22:27:13;;;;;;;4.80;2.45;;;;;;;1.80;95.83;100501.91;10581511;28;20436;-77
2021/11/28 22:32:13;;;;;;;3.97;2.45;;;;;;;1.81;96.32;100496.41;10563824;28;20064;-78
2021/11/28 22:37:13;;;;;;;5.43;2.83;;;;;;;1.81;95.85;100509.75;10581897;28;20313;-77
2021/11/28 22:42:17;;;;;;;3.53;3.10;;;;;;;1.76;95.30;100504.06;10581168;28;20061;-78
2021/11/28 22:47:17;;;;;;;13.73;3.72;;;;;;;1.75;95.61;100506.84;10581499;28;20089;-77
2021/11/28 22:52:19;;;;;;;3.70;3.20;;;;;;;1.81;95.95;100522.28;10563377;28;20078;-77
2021/11/28 22:57:22;;;;;;;14.68;3.38;;;;;;;1.86;96.24;100536.03;10581475;28;20459;-76
2021/11/28 23:02:25;;;;;;;4.80;3.72;;;;;;;1.78;95.95;100526.06;10565636;28;20035;-74
2021/11/28 23:07:25;;;;;;;7.38;3.55;;;;;;;1.71;96.20;100516.16;10590663;28;20552;-79
2021/11/28 23:12:25;;;;;;;5.03;3.30;;;;;;;1.73;96.15;100541.72;10571594;28;20031;-77
2021/11/28 23:17:26;;;;;;;3.28;2.65;;;;;;;1.73;96.02;100539.06;10572201;28;20055;-76